Orbital elements of COSMOS 1275 DEB
| Launched | 3 June 1981 |
| Flight ended | – |
| Launch site | Plesetsk Missile and Space Complex, Russia |
| Owner | Commonwealth of Independent States (former USSR) |
| NORAD ID | 12747 |
| Date fetched |
Epoch osculation |
Inc. [°] |
Ecc. | RA asc node [hr] |
Arg Peri. [°] |
Mean anom [°] |
Mean motion [rev/day] |
Abs. mag |
| Date fetched |
Epoch osculation |
Inc. [°] |
Ecc. | RA asc node [hr] |
Arg Peri. [°] |
Mean anom [°] |
Mean motion [rev/day] |
Abs. mag |
| 2026 May 05 17:57 | 2026 May 05 02:38:27 | 83.0659 | 0.01274 | 10.1874 | 178.5813 | 238.4125 | 13.63241 | – |
| 2026 May 04 17:57 | 2026 Apr 30 13:45:06 | 83.0665 | 0.01270 | 10.4033 | 190.9717 | 238.4125 | 13.63241 | – |
| 2026 May 03 17:57 | 2026 Apr 30 13:45:06 | 83.0665 | 0.01270 | 10.4033 | 190.9717 | 238.4125 | 13.63241 | – |
| 2026 May 02 17:57 | 2026 Apr 30 13:45:06 | 83.0665 | 0.01270 | 10.4033 | 190.9717 | 238.4125 | 13.63241 | – |
| 2026 May 01 17:56 | 2026 Apr 30 13:45:06 | 83.0665 | 0.01270 | 10.4033 | 190.9717 | 238.4125 | 13.63241 | – |
| 2026 Apr 30 17:56 | 2026 Apr 30 13:45:06 | 83.0665 | 0.01270 | 10.4033 | 190.9717 | 238.4125 | 13.63241 | – |
| 2026 Apr 29 17:57 | 2026 Apr 24 13:18:42 | 83.0671 | 0.01264 | 10.6895 | 207.4250 | 238.4125 | 13.63241 | – |
| 2026 Apr 28 17:56 | 2026 Apr 24 13:18:42 | 83.0671 | 0.01264 | 10.6895 | 207.4250 | 238.4125 | 13.63241 | – |
| 2026 Apr 27 17:58 | 2026 Apr 24 13:18:42 | 83.0671 | 0.01264 | 10.6895 | 207.4250 | 238.4125 | 13.63241 | – |
| 2026 Apr 26 17:58 | 2026 Apr 24 13:18:42 | 83.0671 | 0.01264 | 10.6895 | 207.4250 | 238.4125 | 13.63241 | – |
| 2026 Apr 25 17:58 | 2026 Apr 24 13:18:42 | 83.0671 | 0.01264 | 10.6895 | 207.4250 | 238.4125 | 13.63241 | – |
| 2026 Apr 24 17:59 | 2026 Apr 24 13:18:42 | 83.0671 | 0.01264 | 10.6895 | 207.4250 | 238.4125 | 13.63241 | – |
| 2026 Apr 23 17:57 | 2026 Apr 19 04:23:20 | 83.0678 | 0.01260 | 10.9450 | 222.1612 | 238.4125 | 13.63241 | – |
| 2026 Apr 22 17:57 | 2026 Apr 19 04:23:20 | 83.0678 | 0.01260 | 10.9450 | 222.1612 | 238.4125 | 13.63241 | – |
| 2026 Apr 21 17:57 | 2026 Apr 19 04:23:20 | 83.0678 | 0.01260 | 10.9450 | 222.1612 | 238.4125 | 13.63241 | – |
| 2026 Apr 20 17:57 | 2026 Apr 19 04:23:20 | 83.0678 | 0.01260 | 10.9450 | 222.1612 | 238.4125 | 13.63241 | – |
| 2026 Apr 19 17:58 | 2026 Apr 19 04:23:20 | 83.0678 | 0.01260 | 10.9450 | 222.1612 | 238.4125 | 13.63241 | – |
| 2026 Apr 18 17:56 | 2026 Apr 13 05:44:30 | 83.0686 | 0.01256 | 11.2276 | 238.5598 | 238.4125 | 13.63241 | – |
| 2026 Apr 16 17:57 | 2026 Apr 13 05:44:30 | 83.0686 | 0.01256 | 11.2276 | 238.5598 | 238.4125 | 13.63241 | – |
| 2026 Apr 14 17:57 | 2026 Apr 13 05:44:30 | 83.0686 | 0.01256 | 11.2276 | 238.5598 | 238.4125 | 13.63241 | – |
| 2026 Apr 13 17:57 | 2026 Apr 13 05:44:30 | 83.0686 | 0.01256 | 11.2276 | 238.5598 | 238.4125 | 13.63241 | – |
| 2026 Apr 12 17:57 | 2026 Apr 08 15:02:34 | 83.0691 | 0.01251 | 11.4469 | 251.2783 | 238.4125 | 13.63241 | – |
| 2026 Apr 11 17:57 | 2026 Apr 08 15:02:34 | 83.0691 | 0.01251 | 11.4469 | 251.2783 | 238.4125 | 13.63241 | – |
| 2026 Apr 10 17:58 | 2026 Apr 08 15:02:34 | 83.0691 | 0.01251 | 11.4469 | 251.2783 | 238.4125 | 13.63241 | – |
| 2026 Apr 09 18:01 | 2026 Apr 08 15:02:34 | 83.0691 | 0.01251 | 11.4469 | 251.2783 | 238.4125 | 13.63241 | – |
| 2026 Apr 08 17:57 | 2026 Apr 08 15:02:34 | 83.0691 | 0.01251 | 11.4469 | 251.2783 | 238.4125 | 13.63241 | – |